»·PEaware :: N8116Q KRDD-KRNO

N8116Q :: KRDD-KRNO

FLIGHT INFORMATION

Flight Status: Arrived
Operator: Privately registered:
United States
More flights under this callsign
Pilot: Julio S. (28535)
Aircraft: Unknown
(P28U)
More flights by this aircraft type
Origin: KRDD Redding Mun
United States
Destination: KRNO Reno/Tahoe Intl
United States
More flights between these airports :: More routes between these airports
Route: RBL V332 MRGGO V200 TRUCK
File this flight plan on PilotEdge
Remarks:
Altitude:
(Current/Filed)
11,000ft
Speed:
(Current/Filed)
132kts
Departed: 31-Jul-20 04:47 PM
Arrived: 31-Jul-20 06:57 PM
Distance/Time
Traveled:
131nm/2:09
Distance/Time
To Go:
Arrived

Flight Plot

Page will automatically refresh every two minutes.

Flight plan parsing failed; only flown route is shown


Map Options




Map Legend


Flown Route
Filed Route
Departure Airport
Arrival Airport
Navaid (VOR, NDB)
Fix

Horizontal Profiles

Position Reports

Time Latitude Longitude Heading Altitude Ground
Speed
31-Jul-20 16:28 40.510899 -122.298236 0 497ft 0kts
31-Jul-20 16:29 40.510899 -122.298236 359 497ft 0kts
31-Jul-20 16:30 40.510899 -122.298236 359 497ft 0kts
31-Jul-20 16:31 40.510899 -122.298236 359 497ft 0kts
31-Jul-20 16:32 40.510899 -122.298236 359 497ft 0kts
31-Jul-20 16:33 40.510899 -122.298236 359 497ft 0kts
31-Jul-20 16:34 40.510899 -122.298236 359 497ft 0kts
31-Jul-20 16:35 40.510899 -122.298236 359 497ft 0kts
31-Jul-20 16:36 40.510899 -122.298236 359 497ft 0kts
31-Jul-20 16:37 40.510951 -122.298242 352 497ft 3kts
31-Jul-20 16:38 40.511912 -122.298562 5 499ft 11kts
31-Jul-20 16:39 40.513791 -122.298290 3 499ft 17kts
31-Jul-20 16:40 40.515874 -122.297074 44 500ft 17kts
31-Jul-20 16:41 40.517720 -122.296275 0 501ft 14kts
31-Jul-20 16:41 40.519337 -122.296279 359 502ft 14kts
31-Jul-20 16:43 40.520184 -122.296024 60 502ft 0kts
31-Jul-20 16:44 40.520184 -122.296023 60 502ft 0kts
31-Jul-20 16:44 40.520184 -122.296023 60 502ft 0kts
31-Jul-20 16:45 40.520184 -122.296024 60 502ft 0kts
31-Jul-20 16:47 40.518510 -122.294862 179 502ft 61kts
31-Jul-20 16:47 40.508946 -122.295012 182 814ft 89kts
31-Jul-20 16:48 40.495763 -122.295010 180 1476ft 93kts
31-Jul-20 16:50 40.480680 -122.293706 178 2347ft 90kts
31-Jul-20 16:50 40.469916 -122.292172 175 2897ft 91kts
31-Jul-20 16:51 40.456200 -122.288589 169 3600ft 90kts
31-Jul-20 16:52 40.443275 -122.285642 172 4186ft 94kts
31-Jul-20 16:53 40.429288 -122.283106 175 4777ft 96kts
31-Jul-20 16:54 40.414145 -122.280398 175 5312ft 101kts
31-Jul-20 16:55 40.399578 -122.278102 175 5790ft 102kts
31-Jul-20 16:56 40.383668 -122.275798 176 6296ft 102kts
31-Jul-20 16:57 40.366824 -122.273425 176 6813ft 103kts
31-Jul-20 16:58 40.349532 -122.271007 175 7354ft 104kts
31-Jul-20 16:59 40.332711 -122.268650 175 7883ft 104kts
31-Jul-20 17:00 40.316118 -122.266325 175 8399ft 104kts
31-Jul-20 17:01 40.299289 -122.263976 175 8922ft 104kts
31-Jul-20 17:02 40.282521 -122.261637 175 9438ft 106kts
31-Jul-20 17:03 40.265663 -122.259281 175 9961ft 107kts
31-Jul-20 17:04 40.248076 -122.256837 175 10407ft 114kts
31-Jul-20 17:05 40.229268 -122.254234 175 10750ft 121kts
31-Jul-20 17:06 40.209502 -122.251494 175 11022ft 129kts
31-Jul-20 17:07 40.188228 -122.248554 176 11045ft 133kts
31-Jul-20 17:08 40.166080 -122.245629 175 11041ft 135kts
31-Jul-20 17:09 40.143599 -122.242531 175 11041ft 136kts
31-Jul-20 17:10 40.120653 -122.239365 175 11041ft 136kts
31-Jul-20 17:11 40.098958 -122.233363 153 11040ft 139kts
31-Jul-20 17:12 40.080825 -122.215877 144 11023ft 141kts
31-Jul-20 17:13 40.062201 -122.195517 144 11022ft 140kts
31-Jul-20 17:14 40.044247 -122.175650 143 11022ft 139kts
31-Jul-20 17:15 40.027895 -122.157510 143 11022ft 139kts
31-Jul-20 17:16 40.009714 -122.137347 143 11023ft 139kts
31-Jul-20 17:17 39.991587 -122.117247 143 11024ft 140kts
31-Jul-20 17:18 39.973462 -122.097165 143 11025ft 140kts
31-Jul-20 17:19 39.955233 -122.076980 143 11027ft 140kts
31-Jul-20 17:20 39.937146 -122.056973 143 11028ft 140kts
31-Jul-20 17:21 39.919107 -122.037148 143 11029ft 140kts
31-Jul-20 17:22 39.901055 -122.017271 143 11029ft 141kts
31-Jul-20 17:23 39.885342 -121.999946 143 11033ft 141kts
31-Jul-20 17:24 39.869632 -121.982623 143 11034ft 142kts
31-Jul-20 17:25 39.853859 -121.965239 143 11034ft 143kts
31-Jul-20 17:26 39.837189 -121.946874 143 11034ft 143kts
31-Jul-20 17:27 39.817986 -121.925731 143 11025ft 143kts
31-Jul-20 17:28 39.801903 -121.908034 143 11025ft 143kts
31-Jul-20 17:29 39.785609 -121.890117 143 11025ft 143kts
31-Jul-20 17:30 39.766148 -121.868734 143 11026ft 143kts
31-Jul-20 17:31 39.748525 -121.849384 143 11026ft 143kts
31-Jul-20 17:32 39.730786 -121.829921 143 11027ft 142kts
31-Jul-20 17:33 39.715038 -121.812653 143 11028ft 142kts
31-Jul-20 17:34 39.699630 -121.795768 143 11029ft 142kts
31-Jul-20 17:35 39.684393 -121.779082 143 11030ft 143kts
31-Jul-20 17:36 39.668854 -121.762092 143 11030ft 143kts
31-Jul-20 17:37 39.653524 -121.745539 143 11031ft 143kts
31-Jul-20 17:38 39.636535 -121.727075 142 11031ft 142kts
31-Jul-20 17:39 39.612136 -121.700441 143 11032ft 143kts
31-Jul-20 17:40 39.596767 -121.683707 144 11034ft 145kts
31-Jul-20 17:41 39.578987 -121.664355 144 11034ft 146kts
31-Jul-20 17:42 39.562548 -121.646449 144 11034ft 146kts
31-Jul-20 17:43 39.544282 -121.626556 144 11051ft 145kts
31-Jul-20 17:44 39.528337 -121.609201 144 11043ft 146kts
31-Jul-20 17:45 39.512532 -121.592008 144 11043ft 146kts
31-Jul-20 17:46 39.503994 -121.565386 105 11042ft 154kts
31-Jul-20 17:47 39.499101 -121.534748 106 11042ft 154kts
31-Jul-20 17:48 39.493913 -121.503451 106 11041ft 154kts
31-Jul-20 17:49 39.488315 -121.469670 106 11040ft 154kts
31-Jul-20 17:50 39.483193 -121.438779 106 11039ft 154kts
31-Jul-20 17:51 39.478102 -121.408231 106 11055ft 153kts
31-Jul-20 17:52 39.472986 -121.377632 106 11076ft 152kts
31-Jul-20 17:53 39.467893 -121.347122 107 11097ft 152kts
31-Jul-20 17:54 39.463030 -121.318004 107 11117ft 151kts
31-Jul-20 17:55 39.458312 -121.289914 107 11137ft 151kts
31-Jul-20 17:56 39.453398 -121.260724 107 11158ft 151kts
31-Jul-20 17:57 39.447009 -121.222702 107 11185ft 151kts
31-Jul-20 17:58 39.442027 -121.193078 107 11205ft 151kts
31-Jul-20 17:59 39.437159 -121.164249 106 11207ft 152kts
31-Jul-20 18:00 39.432390 -121.136009 106 11207ft 153kts
31-Jul-20 18:01 39.427536 -121.107482 106 11207ft 154kts
31-Jul-20 18:02 39.422648 -121.078836 105 11207ft 155kts
31-Jul-20 18:03 39.417707 -121.049780 104 11207ft 156kts
31-Jul-20 18:04 39.412642 -121.020088 104 11207ft 156kts
31-Jul-20 18:05 39.407637 -120.990758 104 11207ft 156kts
31-Jul-20 18:06 39.401543 -120.955026 103 11207ft 156kts
31-Jul-20 18:07 39.396512 -120.925457 103 11224ft 155kts
31-Jul-20 18:08 39.391301 -120.894935 103 11244ft 155kts
31-Jul-20 18:09 39.386127 -120.864905 103 11264ft 155kts
31-Jul-20 18:10 39.380950 -120.834782 103 11283ft 155kts
31-Jul-20 18:11 39.375733 -120.804427 103 11303ft 155kts
31-Jul-20 18:12 39.370505 -120.774045 103 11314ft 156kts
31-Jul-20 18:13 39.364744 -120.740610 103 11335ft 155kts
31-Jul-20 18:14 39.359423 -120.709777 103 11353ft 155kts
31-Jul-20 18:15 39.353939 -120.678171 103 11354ft 156kts
31-Jul-20 18:16 39.348472 -120.646195 97 11350ft 157kts
31-Jul-20 18:17 39.352842 -120.611991 77 11354ft 157kts
31-Jul-20 18:18 39.358849 -120.579008 76 11354ft 157kts
31-Jul-20 18:19 39.365255 -120.545067 76 11354ft 157kts
31-Jul-20 18:20 39.371725 -120.510847 76 11354ft 157kts
31-Jul-20 18:21 39.378092 -120.477173 76 11354ft 157kts
31-Jul-20 18:22 39.384463 -120.443676 75 11353ft 157kts
31-Jul-20 18:24 39.390819 -120.410279 75 11352ft 158kts
31-Jul-20 18:25 39.397158 -120.376932 75 11351ft 158kts
31-Jul-20 18:26 39.403528 -120.343148 76 11348ft 158kts
31-Jul-20 18:27 39.410265 -120.307486 76 11347ft 158kts
31-Jul-20 18:28 39.416824 -120.272782 76 11345ft 158kts
31-Jul-20 18:29 39.424667 -120.231172 76 11185ft 163kts
31-Jul-20 18:30 39.430974 -120.197675 76 11173ft 159kts
31-Jul-20 18:31 39.437960 -120.159820 78 11166ft 159kts
31-Jul-20 18:32 39.443395 -120.125744 78 11159ft 159kts
31-Jul-20 18:33 39.449544 -120.086469 78 11148ft 159kts
31-Jul-20 18:34 39.455401 -120.051316 74 11079ft 161kts
31-Jul-20 18:35 39.464398 -120.015432 68 10708ft 166kts
31-Jul-20 18:36 39.477129 -119.983075 54 10143ft 163kts
31-Jul-20 18:37 39.491051 -119.952026 64 9461ft 164kts
31-Jul-20 18:38 39.498327 -119.918946 82 8768ft 165kts
31-Jul-20 18:39 39.498444 -119.886194 92 8135ft 165kts
31-Jul-20 18:40 39.496351 -119.855589 94 7523ft 156kts
31-Jul-20 18:40 39.494847 -119.831271 92 6821ft 156kts
31-Jul-20 18:42 39.493782 -119.799325 95 5879ft 152kts
31-Jul-20 18:43 39.483608 -119.781576 172 5388ft 110kts
31-Jul-20 18:43 39.473232 -119.773318 102 5258ft 103kts
31-Jul-20 18:44 39.482423 -119.766109 339 4808ft 86kts
31-Jul-20 18:45 39.493414 -119.766362 352 4557ft 86kts
31-Jul-20 18:46 39.505669 -119.766774 349 4867ft 110kts
31-Jul-20 18:47 39.520020 -119.763176 51 5484ft 119kts
31-Jul-20 18:48 39.514619 -119.742698 167 5622ft 130kts
31-Jul-20 18:49 39.497471 -119.740726 185 5514ft 124kts
31-Jul-20 18:50 39.481841 -119.742378 193 5363ft 103kts
31-Jul-20 18:51 39.470846 -119.746483 228 5268ft 79kts
31-Jul-20 18:52 39.467616 -119.755744 269 5159ft 64kts
31-Jul-20 18:53 39.471201 -119.764634 321 5060ft 76kts
31-Jul-20 18:54 39.481277 -119.766606 350 4724ft 80kts
31-Jul-20 18:55 39.491026 -119.766735 355 4428ft 63kts
31-Jul-20 18:56 39.496757 -119.766817 3 4418ft 34kts
31-Jul-20 18:57 39.498591 -119.764962 39 4418ft 15kts

Navigation Log

Ident Type
Flight plan parsing failed, navigation log unavailable